Plain City, OH (43064)

6:28 PM EDT on August 03, 2015 (GMT -0400)
APRSWXNET | | Change Station
CLOSE
Current Station
Personal Weather Station
Location: Amlin, OH
Elevation: 940 ft
Nearby Weather Stations
Active Advisory: Severe Thunderstorm Watch

Elev 940 ft 40.09 °N, 83.18 °W | Updated 49 minutes ago

Partly Cloudy
Partly Cloudy
87 °F
Feels Like 90 °F
N
4
Wind Variable Wind from ESE
Gusts 9.0 mph

Today
High -- | Low -- °F
--% Chance of Precip.
Yesterday
High -- | Low -- °F
Precip. -- in
6:32 AM 8:45 PM
Waning Gibbous, 83% visible
Pressure 29.84 in
Visibility 10.0 miles
Clouds Scattered Clouds 3500 ft
Scattered Clouds 5000 ft
Mostly Cloudy 7000 ft
Heat Index 90 °F
Dew Point 67 °F
Humidity 51%
Rainfall in
Snow Depth Not available.
UV 1 out of 12
Pollen 5.20 out of 12
Air Quality Not available.
Flu Activity Not available.
METAR KMRT 032214Z AUTO 28004KT 10SM SCT035 SCT050 BKN070 25/20 A2984 RMK AO2 T02490203

More Conditions Fewer Conditions

Pressure 29.84 in
Visibility 10.0 miles
Clouds Scattered Clouds 3500 ft
Scattered Clouds 5000 ft
Mostly Cloudy 7000 ft
Heat Index 90 °F
Dew Point 67 °F
Humidity 51%
Rainfall in
Snow Depth Not available.
UV 1 out of 12
Pollen 5.20 out of 12
Air Quality Not available.
Flu Activity Not available.
METAR KMRT 032214Z AUTO 28004KT 10SM SCT035 SCT050 BKN070 25/20 A2984 RMK AO2 T02490203

More Conditions Fewer Conditions

10-Day Weather Forecast

×

Almanac

Astronomy

Aug. 03, 2015 Rise Set
Actual Time
Civil Twilight
Nautical Twilight
Astronomical Twilight
Moon
Length of Visible Light
Length of Day
Tomorrow will be .
, % of the Moon is Illuminated

Today's Extremes

State Highs State Lows

Community

WunderPhotos

Upload Photos

1,843,785 photos uploaded!

WunderBlogs® & News

Nearby

Air Quality

  Air Quality AQ Index Pollutant
Not available.

Snow Depth

Station Depth Elevation

Earthquake Activity

City Distance Mag. Time & Date
Minimum magnitude displayed is 2.5.

Coastal Water Temperatures

Place Temperature

Stations

Nearby Weather Stations

Station Location Temp. Windchill Dew Point Humidity Wind Precip. Elev Updated Type
                   
Severe Thunderstorm Watch
Statement as of 6:24 PM EDT on August 03, 2015

Severe Thunderstorm Watch 467 remains in effect until 800 PM EDT

OH
. Ohio counties included are

Adams Brown Butler
Champaign Clark Clermont
Clinton Darke Fayette
Greene Hamilton Highland
Madison Miami Montgomery
Preble Shelby Warren